stratfordfestival.ca alexa rank chart, stratfordfestival.ca alexa rank daily changes

stratfordfestival.ca alexa rank chart, stratfordfestival.ca alexa rank daily changes

stratfordfestival.ca
Actual rank:
317 565

RANK HISTORY

Date Rank Diff
2017/04/22 317 565 -6 504
2017/04/21 324 069 +2 697
2017/04/20 321 372 -1 978
2017/04/19 323 350 -13 691
2017/04/18 337 041 -1 004
2017/04/17 338 045 -16 924
2017/04/16 354 969 -3 998
2017/04/15 358 967 +8 226
2017/04/14 350 741 +10 263
2017/04/13 340 478 +669
2017/04/12 339 809 -9 571
2017/04/11 349 380 -4 602
2017/04/10 353 982 -27 005
2017/04/09 380 987 +6 225
2017/04/08 374 762 -15 916
2017/04/07 390 678 -3 688
2017/04/06 394 366 -1 803
2017/04/05 396 169 +3 381
2017/04/04 392 788 -16 966
2017/04/03 409 754 -19 782
2017/04/02 429 536 -1 119
2017/04/01 430 655 +8 660
2017/03/31 421 995 +5 232
2017/03/30 416 763 -10 334
2017/03/29 427 097 -12 557
2017/03/28 439 654 -2 030
2017/03/27 441 684 -16 703
2017/03/26 458 387 -5 042
2017/03/25 463 429 -19 911
2017/03/24 483 340 -22 031
2017/03/23 505 371 +3 489
2017/03/22 501 882 +10 551
2017/03/21 491 331 +4 145
2017/03/20 487 186 +15 587
2017/03/19 471 599 +40 931
2017/03/18 430 668 -12 710
2017/03/17 443 378 +4 556
2017/03/16 438 822 +17 140
2017/03/15 421 682 -4 633
2017/03/14 426 315 -18 376
2017/03/13 444 691 +191
2017/03/12 444 500 +12 127
2017/03/11 432 373 +3 464
2017/03/10 428 909 -509
2017/03/09 429 418 -23 323
2017/03/08 452 741 -3 581
2017/03/07 456 322 -17 891
2017/03/06 474 213 -6 908
2017/03/01 481 121 +21 222
2017/02/28 459 899 +550
2017/02/27 459 349 +7 975
2017/02/26 451 374 +4 877
2017/02/25 446 497 +11 164
2017/02/24 435 333 +404
2017/02/23 434 929 -18 298
2017/02/22 453 227 -7 410
2017/02/21 460 637

WIDGET FOR YOUR SITE

DOMAINS WITH THE NEAREST RANK

Domain Rank
brooksidepress.org 317 560
roz.ru 317 561
inquicker.com 317 562
cimatime.net 317 563
charlietemple.nl 317 564
stratfordfestival.ca 317 565
everywritersresource.com 317 566
roilandtv.com 317 567
tibame.com 317 568
classificats.net 317 569
mihanniaz.ir 317 570

DOMAINS WITH THE NEAREST RANK BY TLD .ca

Domain Rank
ocbf.ca 315 672
autos.ca 315 731
michelin.ca 316 333
vonage.ca 316 950
herzing.ca 317 453
stratfordfestival.ca 317 565
windsorite.ca 317 789
clientaccess.ca 317 855
freephoneline.ca 317 882
parknfly.ca 318 832
urbanrec.ca 318 893